createdAt,value
2022-08-14T00:01:50.277Z,8.60
2022-08-14T00:04:35.256Z,8.27
2022-08-14T00:07:09.675Z,8.77
2022-08-14T00:09:39.671Z,8.63
2022-08-14T00:12:23.387Z,8.50
2022-08-14T00:14:53.099Z,8.93
2022-08-14T00:17:22.359Z,9.40
2022-08-14T00:19:49.553Z,8.50
2022-08-14T00:22:22.102Z,7.97
2022-08-14T00:25:09.820Z,8.07
2022-08-14T00:27:37.970Z,8.20
2022-08-14T00:30:10.940Z,8.27
2022-08-14T00:32:56.413Z,7.93
2022-08-14T00:36:37.317Z,8.35
2022-08-14T00:38:11.846Z,8.55
2022-08-14T00:40:39.089Z,8.32
2022-08-14T00:43:06.559Z,9.40
2022-08-14T00:45:34.075Z,8.27
2022-08-14T00:48:01.263Z,8.05
2022-08-14T00:50:31.099Z,8.30
2022-08-14T00:53:00.234Z,8.75
2022-08-14T00:55:28.006Z,8.68
2022-08-14T00:58:16.406Z,8.65
2022-08-14T01:00:50.966Z,8.13
2022-08-14T01:03:25.860Z,8.65
2022-08-14T01:05:53.467Z,8.43
2022-08-14T01:08:51.626Z,8.37
2022-08-14T01:11:19.216Z,8.82
2022-08-14T01:13:55.641Z,8.60
2022-08-14T01:16:31.086Z,8.60
2022-08-14T01:19:19.558Z,8.50
2022-08-14T01:21:53.384Z,8.27
2022-08-14T01:24:24.822Z,9.35
2022-08-14T01:27:00.275Z,8.85
2022-08-14T01:29:44.653Z,8.40
2022-08-14T01:32:22.962Z,9.32
2022-08-14T01:35:19.347Z,8.80
2022-08-14T01:37:46.806Z,9.02
2022-08-14T01:42:53.054Z,9.15
2022-08-14T01:45:25.603Z,9.13
2022-08-14T01:48:03.702Z,8.63
2022-08-14T01:50:33.708Z,8.90
2022-08-14T01:53:01.705Z,9.40
2022-08-14T01:55:32.210Z,9.07
2022-08-14T01:58:01.772Z,8.65
2022-08-14T02:00:48.072Z,9.23
2022-08-14T02:03:16.259Z,8.05
2022-08-14T02:05:44.124Z,8.60
2022-08-14T02:08:11.466Z,8.75
2022-08-14T02:10:47.097Z,9.00
2022-08-14T02:13:16.167Z,8.57
2022-08-14T02:15:44.126Z,8.45
2022-08-14T02:18:15.305Z,8.38
2022-08-14T02:20:42.884Z,9.38
2022-08-14T02:23:11.531Z,8.10
2022-08-14T02:25:39.806Z,8.32
2022-08-14T02:28:22.427Z,8.60
2022-08-14T02:30:55.849Z,9.65
2022-08-14T02:33:23.654Z,8.20
2022-08-14T02:35:53.627Z,8.43
2022-08-14T02:38:35.110Z,7.70
2022-08-14T02:41:02.959Z,8.52
2022-08-14T02:43:45.975Z,8.35
2022-08-14T02:46:20.587Z,7.80
2022-08-14T02:49:04.190Z,8.27
2022-08-14T02:51:34.006Z,7.70
2022-08-14T02:54:01.942Z,7.95
2022-08-14T02:57:15.615Z,7.38
2022-08-14T02:59:18.819Z,7.97
2022-08-14T03:01:50.307Z,7.93
2022-08-14T03:04:20.352Z,7.82
2022-08-14T03:06:57.550Z,7.95
2022-08-14T03:09:41.861Z,8.27
2022-08-14T03:12:31.518Z,8.23
2022-08-14T03:15:02.628Z,8.07
2022-08-14T03:17:31.977Z,8.13
2022-08-14T03:20:11.203Z,8.02
2022-08-14T03:22:42.311Z,7.97
2022-08-14T03:25:11.280Z,8.52
2022-08-14T03:27:48.601Z,8.15
2022-08-14T03:30:39.070Z,8.38
2022-08-14T03:33:10.644Z,8.30
2022-08-14T03:35:40.348Z,7.87
2022-08-14T03:39:11.617Z,7.80
2022-08-14T03:41:16.561Z,7.80
2022-08-14T03:43:57.139Z,7.68
2022-08-14T03:46:38.636Z,8.38
2022-08-14T03:49:13.900Z,8.05
2022-08-14T03:51:51.810Z,7.90
2022-08-14T03:54:21.076Z,8.05
2022-08-14T03:56:50.162Z,8.18
2022-08-14T03:59:18.256Z,7.97
2022-08-14T04:01:57.996Z,7.68
2022-08-14T04:04:29.321Z,8.88
2022-08-14T04:06:59.358Z,7.93
2022-08-14T04:09:27.262Z,8.30
2022-08-14T04:11:56.159Z,7.85
2022-08-14T04:14:25.335Z,7.68
2022-08-14T04:16:52.695Z,8.05
2022-08-14T04:19:24.581Z,8.20
2022-08-14T04:22:02.141Z,8.02
2022-08-14T04:24:37.800Z,7.70
2022-08-14T04:27:10.112Z,8.23
2022-08-14T04:29:38.506Z,8.50
2022-08-14T04:32:58.294Z,8.68
2022-08-14T04:34:55.489Z,8.40
2022-08-14T04:37:42.841Z,8.30
2022-08-14T04:40:29.562Z,8.70
2022-08-14T04:43:17.114Z,8.70
2022-08-14T04:45:45.034Z,8.43
2022-08-14T04:48:13.183Z,9.18
2022-08-14T04:50:44.256Z,7.88
2022-08-14T04:53:23.321Z,8.88
2022-08-14T04:55:53.893Z,8.13
2022-08-14T04:58:32.453Z,8.90
2022-08-14T05:01:01.638Z,8.57
2022-08-14T05:03:29.822Z,8.32
2022-08-14T05:06:02.968Z,8.65
2022-08-14T05:08:32.111Z,8.20
2022-08-14T05:11:19.362Z,8.20
2022-08-14T05:14:16.237Z,8.68
2022-08-14T05:16:34.938Z,7.88
2022-08-14T05:19:24.909Z,8.02
2022-08-14T05:22:16.918Z,8.02
2022-08-14T05:24:51.211Z,7.82
2022-08-14T05:27:23.320Z,9.13
2022-08-14T05:29:51.980Z,7.60
2022-08-14T05:32:19.199Z,8.65
2022-08-14T05:34:47.416Z,8.32
2022-08-14T05:37:15.493Z,8.68
2022-08-14T05:39:43.414Z,8.30
2022-08-14T05:42:21.591Z,8.73
2022-08-14T05:44:49.759Z,8.32
2022-08-14T05:47:21.474Z,8.60
2022-08-14T05:49:48.748Z,8.68
2022-08-14T05:52:18.145Z,8.73
2022-08-14T05:54:45.625Z,8.55
2022-08-14T05:57:12.794Z,7.88
2022-08-14T05:59:42.020Z,8.98
2022-08-14T06:02:10.918Z,8.57
2022-08-14T06:04:39.078Z,8.82
2022-08-14T06:07:06.598Z,8.77
2022-08-14T06:09:35.716Z,8.93
2022-08-14T06:12:08.467Z,9.07
2022-08-14T06:14:35.888Z,8.25
2022-08-14T06:17:04.014Z,8.57
2022-08-14T06:19:31.511Z,7.97
2022-08-14T06:21:59.191Z,8.10
2022-08-14T06:24:27.385Z,8.63
2022-08-14T06:27:04.299Z,8.80
2022-08-14T06:29:34.635Z,8.45
2022-08-14T06:32:38.134Z,9.27
2022-08-14T06:35:11.299Z,8.73
2022-08-14T06:37:47.878Z,8.30
2022-08-14T06:40:25.599Z,8.55
2022-08-14T06:42:54.927Z,9.13
2022-08-14T06:45:26.360Z,8.65
2022-08-14T06:47:54.834Z,8.68
2022-08-14T06:50:27.801Z,8.82
2022-08-14T06:52:56.533Z,9.38
2022-08-14T06:55:27.771Z,8.40
2022-08-14T06:57:56.020Z,8.82
2022-08-14T07:00:27.474Z,8.85
2022-08-14T07:03:17.067Z,9.55
2022-08-14T07:05:49.313Z,8.35
2022-08-14T07:08:31.579Z,8.43
2022-08-14T07:11:01.204Z,8.68
2022-08-14T07:13:30.535Z,8.82
2022-08-14T07:15:58.707Z,8.07
2022-08-14T07:18:33.027Z,8.13
2022-08-14T07:21:02.534Z,7.88
2022-08-14T07:23:31.086Z,8.00
2022-08-14T07:25:59.433Z,7.80
2022-08-14T07:28:28.280Z,8.70
2022-08-14T07:31:05.018Z,7.95
2022-08-14T07:33:41.958Z,7.85
2022-08-14T07:36:27.715Z,7.80
2022-08-14T07:39:03.638Z,8.13
2022-08-14T07:41:39.791Z,7.95
2022-08-14T07:44:28.887Z,8.25
2022-08-14T07:46:58.869Z,8.27
2022-08-14T07:49:26.458Z,7.57
2022-08-14T07:51:53.994Z,8.38
2022-08-14T07:54:22.804Z,8.15
2022-08-14T07:56:56.838Z,8.35
2022-08-14T07:59:41.205Z,8.65
2022-08-14T08:02:19.688Z,8.70
2022-08-14T08:04:55.150Z,8.40
2022-08-14T08:07:29.947Z,8.95
2022-08-14T08:09:58.346Z,7.80
2022-08-14T08:12:31.069Z,8.13
2022-08-14T08:15:03.411Z,8.52
2022-08-14T08:17:34.732Z,8.05
2022-08-14T08:20:06.788Z,8.18
2022-08-14T08:22:37.978Z,7.32
2022-08-14T08:25:13.971Z,7.85
2022-08-14T08:27:55.081Z,8.40
2022-08-14T08:30:22.950Z,7.88
2022-08-14T08:32:52.481Z,7.82
2022-08-14T08:35:46.398Z,8.30
2022-08-14T08:39:17.928Z,8.10
2022-08-14T08:41:11.105Z,7.47
2022-08-14T08:43:39.635Z,8.07
2022-08-14T08:46:21.566Z,8.45
2022-08-14T08:51:30.551Z,8.10
2022-08-14T08:54:01.305Z,8.27
2022-08-14T08:56:39.589Z,8.40
2022-08-14T08:59:30.685Z,8.48
2022-08-14T09:02:04.041Z,7.68
2022-08-14T09:04:45.179Z,7.90
2022-08-14T09:07:20.890Z,7.72
2022-08-14T09:09:54.140Z,7.85
2022-08-14T09:12:26.877Z,8.23
2022-08-14T09:14:54.652Z,7.97
2022-08-14T09:17:25.641Z,8.15
2022-08-14T09:19:54.181Z,8.02
2022-08-14T09:22:35.995Z,8.02
2022-08-14T09:25:09.121Z,7.40
2022-08-14T09:27:37.572Z,7.40
2022-08-14T09:30:31.726Z,7.88
2022-08-14T09:33:10.983Z,7.13
2022-08-14T09:35:58.945Z,7.75
2022-08-14T09:38:47.782Z,7.30
2022-08-14T09:42:17.805Z,7.03
2022-08-14T09:44:41.900Z,7.78
2022-08-14T09:47:14.940Z,7.30
2022-08-14T09:49:42.983Z,7.25
2022-08-14T09:52:33.279Z,7.60
2022-08-14T09:55:02.812Z,6.82
2022-08-14T09:57:31.630Z,7.13
2022-08-14T09:59:59.105Z,6.72
2022-08-14T10:02:45.479Z,6.88
2022-08-14T10:05:13.221Z,6.82
2022-08-14T10:07:53.846Z,6.88
2022-08-14T10:10:34.782Z,7.07
2022-08-14T10:13:02.838Z,6.78
2022-08-14T10:15:31.603Z,6.20
2022-08-14T10:18:05.298Z,7.28
2022-08-14T10:20:40.561Z,6.90
2022-08-14T10:23:11.835Z,6.35
2022-08-14T10:25:44.410Z,6.97
2022-08-14T10:28:51.581Z,7.35
2022-08-14T10:31:03.793Z,6.88
2022-08-14T10:33:33.765Z,6.32
2022-08-14T10:36:02.754Z,6.75
2022-08-14T10:38:32.408Z,7.78
2022-08-14T10:41:13.473Z,7.03
2022-08-14T10:43:41.702Z,6.75
2022-08-14T10:47:36.954Z,7.07
2022-08-14T10:49:04.493Z,6.97
2022-08-14T10:51:34.035Z,6.70
2022-08-14T10:54:26.155Z,6.43
2022-08-14T10:56:56.009Z,6.65
2022-08-14T10:59:30.995Z,6.60
2022-08-14T11:02:03.081Z,7.10
2022-08-14T11:04:31.232Z,6.50
2022-08-14T11:06:59.276Z,6.57
2022-08-14T11:09:31.564Z,6.65
2022-08-14T11:12:34.796Z,6.93
2022-08-14T11:14:59.192Z,6.78
2022-08-14T11:17:31.793Z,6.43
2022-08-14T11:20:01.324Z,7.43
2022-08-14T11:23:03.018Z,6.63
2022-08-14T11:25:19.517Z,6.70
2022-08-14T11:27:49.131Z,6.97
2022-08-14T11:30:49.954Z,7.22
2022-08-14T11:33:07.651Z,6.40
2022-08-14T11:35:47.444Z,6.88
2022-08-14T11:38:17.030Z,7.05
2022-08-14T11:40:47.081Z,6.43
2022-08-14T11:43:15.418Z,6.47
2022-08-14T11:45:45.953Z,6.60
2022-08-14T11:49:03.153Z,6.60
2022-08-14T11:51:13.595Z,6.43
2022-08-14T11:53:43.551Z,6.63
2022-08-14T11:56:12.896Z,6.45
2022-08-14T11:58:40.701Z,6.70
2022-08-14T12:01:10.390Z,6.38
2022-08-14T12:03:51.396Z,6.45
2022-08-14T12:06:29.106Z,6.53
2022-08-14T12:09:08.748Z,7.05
2022-08-14T12:11:44.295Z,6.47
2022-08-14T12:14:30.044Z,6.35
2022-08-14T12:17:13.082Z,6.80
2022-08-14T12:20:00.279Z,6.15
2022-08-14T12:22:34.354Z,6.80
2022-08-14T12:25:06.037Z,6.68
2022-08-14T12:27:41.862Z,7.38
2022-08-14T12:30:14.746Z,6.72
2022-08-14T12:32:48.449Z,5.95
2022-08-14T12:35:18.039Z,7.40
2022-08-14T12:37:49.732Z,5.68
2022-08-14T12:40:19.647Z,6.15
2022-08-14T12:45:30.748Z,6.05
2022-08-14T12:48:00.623Z,6.53
2022-08-14T12:50:49.808Z,6.72
2022-08-14T12:53:17.647Z,6.57
2022-08-14T12:56:17.894Z,6.07
2022-08-14T12:58:36.279Z,6.30
2022-08-14T13:01:20.587Z,6.18
2022-08-14T13:03:51.096Z,6.65
2022-08-14T13:06:23.186Z,6.88
2022-08-14T13:09:00.306Z,6.53
2022-08-14T13:11:30.993Z,6.30
2022-08-14T13:14:00.453Z,6.32
2022-08-14T13:16:38.197Z,6.35
2022-08-14T13:19:11.151Z,6.30
2022-08-14T13:21:58.980Z,6.90
2022-08-14T13:26:59.174Z,7.00
2022-08-14T13:29:31.456Z,6.85
2022-08-14T13:31:59.082Z,6.72
2022-08-14T13:34:28.579Z,7.43
2022-08-14T13:37:03.738Z,7.25
2022-08-14T13:39:36.302Z,6.90
2022-08-14T13:42:08.764Z,7.63
2022-08-14T13:44:43.042Z,6.60
2022-08-14T13:47:12.198Z,7.20
2022-08-14T13:49:57.587Z,7.60
2022-08-14T13:52:59.498Z,7.53
2022-08-14T13:55:14.161Z,6.30
2022-08-14T13:57:49.646Z,7.10
2022-08-14T14:00:35.601Z,7.25
2022-08-14T14:03:19.686Z,8.20
2022-08-14T14:05:53.767Z,7.50
2022-08-14T14:08:45.947Z,7.20
2022-08-14T14:11:10.434Z,7.15
2022-08-14T14:13:44.970Z,6.60
2022-08-14T14:16:14.972Z,7.30
2022-08-14T14:18:43.962Z,6.78
2022-08-14T14:23:44.567Z,7.07
2022-08-14T14:26:20.023Z,7.78
2022-08-14T14:28:51.606Z,7.63
2022-08-14T14:31:30.101Z,6.97
2022-08-14T14:34:00.504Z,7.38
2022-08-14T14:36:29.417Z,7.47
2022-08-14T14:39:01.327Z,7.28
2022-08-14T14:41:37.599Z,7.65
2022-08-14T14:44:08.941Z,7.28
2022-08-14T14:46:37.848Z,7.65
2022-08-14T14:49:14.350Z,7.15
2022-08-14T14:51:46.651Z,7.55
2022-08-14T14:54:19.210Z,6.65
2022-08-14T14:56:59.070Z,7.18
2022-08-14T14:59:26.874Z,7.03
2022-08-14T15:02:00.253Z,7.27
2022-08-14T15:04:27.501Z,6.88
2022-08-14T15:06:55.585Z,6.72
2022-08-14T15:09:23.790Z,6.55
2022-08-14T15:11:51.281Z,6.95
2022-08-14T15:14:56.260Z,5.78
2022-08-14T15:17:07.932Z,7.45
2022-08-14T15:19:37.657Z,6.35
2022-08-14T15:22:06.423Z,6.80
2022-08-14T15:24:34.958Z,6.72
2022-08-14T15:27:06.713Z,6.20
2022-08-14T15:29:43.397Z,5.95
2022-08-14T15:32:10.732Z,5.93
2022-08-14T15:34:51.000Z,6.00
2022-08-14T15:37:19.326Z,6.10
2022-08-14T15:39:46.786Z,6.28
2022-08-14T15:42:17.084Z,6.28
2022-08-14T15:44:57.985Z,6.30
2022-08-14T15:47:29.912Z,6.10
2022-08-14T15:49:59.316Z,6.60
2022-08-14T15:52:34.349Z,6.35
2022-08-14T15:55:04.807Z,6.55
2022-08-14T15:57:32.204Z,6.03
2022-08-14T16:00:40.039Z,6.30
2022-08-14T16:03:08.765Z,6.32
2022-08-14T16:05:38.582Z,6.13
2022-08-14T16:08:29.663Z,6.07
2022-08-14T16:13:39.285Z,6.72
2022-08-14T16:16:49.974Z,6.55
2022-08-14T16:18:59.623Z,6.28
2022-08-14T16:21:31.628Z,6.65
2022-08-14T16:24:00.645Z,6.47
2022-08-14T16:26:30.125Z,7.03
2022-08-14T16:29:15.518Z,6.53
2022-08-14T16:31:44.904Z,7.85
2022-08-14T16:34:44.108Z,6.65
2022-08-14T16:37:03.254Z,6.80
2022-08-14T16:39:30.679Z,7.80
2022-08-14T16:42:00.699Z,7.10
2022-08-14T16:44:50.566Z,7.80
2022-08-14T16:47:22.605Z,7.53
2022-08-14T16:50:04.828Z,7.95
2022-08-14T16:52:44.224Z,7.30
2022-08-14T16:55:13.906Z,7.68
2022-08-14T16:57:51.367Z,7.32
2022-08-14T17:00:43.692Z,8.05
2022-08-14T17:03:12.780Z,7.63
2022-08-14T17:05:46.830Z,8.23
2022-08-14T17:08:32.613Z,7.72
2022-08-14T17:11:12.488Z,8.50
2022-08-14T17:13:59.426Z,8.55
2022-08-14T17:16:31.886Z,9.02
2022-08-14T17:19:01.682Z,8.02
2022-08-14T17:21:41.544Z,8.68
2022-08-14T17:24:56.743Z,8.15
2022-08-14T17:27:03.656Z,10.05
2022-08-14T17:29:32.619Z,8.10
2022-08-14T17:32:02.374Z,9.23
2022-08-14T17:34:48.815Z,8.73
2022-08-14T17:37:34.174Z,8.85
2022-08-14T17:40:15.104Z,9.02
2022-08-14T17:42:51.557Z,8.98
2022-08-14T17:45:26.837Z,9.32
2022-08-14T17:47:57.123Z,9.52
2022-08-14T17:50:59.880Z,9.00
2022-08-14T17:53:30.286Z,9.57
2022-08-14T17:56:03.204Z,9.60
2022-08-14T17:58:41.707Z,9.77
2022-08-14T18:01:13.643Z,9.95
2022-08-14T18:03:50.961Z,9.80
2022-08-14T18:06:39.754Z,10.38
2022-08-14T18:09:25.262Z,9.65
2022-08-14T18:11:55.231Z,9.98
2022-08-14T18:14:32.418Z,9.75
2022-08-14T18:17:00.375Z,10.18
2022-08-14T18:19:29.206Z,9.40
2022-08-14T18:22:03.974Z,10.07
2022-08-14T18:24:31.745Z,10.35
2022-08-14T18:27:08.946Z,9.52
2022-08-14T18:29:42.512Z,9.77
2022-08-14T18:32:28.235Z,10.43
2022-08-14T18:35:02.935Z,9.45
2022-08-14T18:37:39.385Z,10.35
2022-08-14T18:40:17.858Z,9.88
2022-08-14T18:42:51.316Z,10.02
2022-08-14T18:45:28.480Z,10.63
2022-08-14T18:48:16.269Z,10.35
2022-08-14T18:50:52.651Z,10.35
2022-08-14T18:53:20.613Z,11.18
2022-08-14T18:55:59.972Z,10.75
2022-08-14T18:58:31.440Z,10.63
2022-08-14T19:01:02.213Z,9.55
2022-08-14T19:03:36.316Z,10.30
2022-08-14T19:06:05.498Z,10.13
2022-08-14T19:08:58.959Z,10.73
2022-08-14T19:11:32.679Z,10.88
2022-08-14T19:14:05.244Z,9.57
2022-08-14T19:16:43.126Z,10.48
2022-08-14T19:19:17.171Z,11.15
2022-08-14T19:21:55.146Z,10.73
2022-08-14T19:24:29.737Z,10.98
2022-08-14T19:27:16.591Z,10.13
2022-08-14T19:29:47.995Z,10.63
2022-08-14T19:32:40.285Z,10.25
2022-08-14T19:35:49.083Z,10.23
2022-08-14T19:38:33.638Z,9.48
2022-08-14T19:41:02.062Z,10.00
2022-08-14T19:43:52.274Z,9.88
2022-08-14T19:46:38.922Z,9.85
2022-08-14T19:49:12.321Z,10.13
2022-08-14T19:51:43.684Z,9.63
2022-08-14T19:54:13.769Z,9.27
2022-08-14T19:56:45.313Z,9.07
2022-08-14T19:59:17.733Z,10.70
2022-08-14T20:01:45.414Z,9.50
2022-08-14T20:04:46.864Z,8.73
2022-08-14T20:07:11.552Z,9.80
2022-08-14T20:11:03.336Z,9.63
2022-08-14T20:12:35.478Z,8.48
2022-08-14T20:15:21.176Z,9.85
2022-08-14T20:17:52.792Z,8.88
2022-08-14T20:20:31.682Z,9.90
2022-08-14T20:23:11.567Z,10.32
2022-08-14T20:25:55.784Z,9.40
2022-08-14T20:28:30.012Z,10.52
2022-08-14T20:31:14.438Z,10.07
2022-08-14T20:34:03.355Z,10.40
2022-08-14T20:36:30.854Z,9.80
2022-08-14T20:38:58.366Z,10.25
2022-08-14T20:41:25.737Z,10.60
2022-08-14T20:44:20.621Z,10.10
2022-08-14T20:46:50.023Z,10.85
2022-08-14T20:49:21.337Z,10.45
2022-08-14T20:51:59.370Z,10.75
2022-08-14T20:54:33.963Z,10.25
2022-08-14T20:57:07.490Z,11.27
2022-08-14T20:59:40.044Z,10.43
2022-08-14T21:02:28.649Z,11.10
2022-08-14T21:04:58.628Z,9.95
2022-08-14T21:07:36.551Z,10.43
2022-08-14T21:10:44.278Z,10.63
2022-08-14T21:14:17.840Z,10.27
2022-08-14T21:16:33.256Z,11.10
2022-08-14T21:18:58.430Z,10.85
2022-08-14T21:21:41.262Z,10.18
2022-08-14T21:24:09.426Z,9.77
2022-08-14T21:27:02.146Z,11.00
2022-08-14T21:29:31.892Z,10.07
2022-08-14T21:31:59.165Z,10.85
2022-08-14T21:34:32.273Z,9.98
2022-08-14T21:37:08.830Z,10.73
2022-08-14T21:39:37.478Z,9.75
2022-08-14T21:42:06.195Z,10.25
2022-08-14T21:44:42.577Z,10.80
2022-08-14T21:47:10.154Z,10.27
2022-08-14T21:49:40.034Z,10.10
2022-08-14T21:52:49.437Z,10.52
2022-08-14T21:54:59.436Z,10.82
2022-08-14T21:57:56.044Z,10.73
2022-08-14T22:00:35.449Z,10.68
2022-08-14T22:03:12.722Z,11.23
2022-08-14T22:05:41.311Z,9.98
2022-08-14T22:08:12.207Z,10.60
2022-08-14T22:10:42.511Z,10.10
2022-08-14T22:13:12.173Z,9.77
2022-08-14T22:15:43.794Z,10.52
2022-08-14T22:18:20.707Z,10.52
2022-08-14T22:20:53.934Z,10.10
2022-08-14T22:23:24.965Z,10.63
2022-08-14T22:25:53.625Z,11.45
2022-08-14T22:28:22.644Z,10.07
2022-08-14T22:30:55.039Z,10.70
2022-08-14T22:33:26.660Z,10.60
2022-08-14T22:35:58.893Z,9.50
2022-08-14T22:38:35.536Z,10.55
2022-08-14T22:41:27.438Z,10.23
2022-08-14T22:43:53.723Z,10.95
2022-08-14T22:46:21.844Z,10.48
2022-08-14T22:48:51.263Z,10.65
2022-08-14T22:51:19.569Z,10.15
2022-08-14T22:53:48.388Z,10.98
2022-08-14T22:56:21.269Z,10.35
2022-08-14T22:58:49.982Z,11.00
2022-08-14T23:01:55.128Z,11.30
2022-08-14T23:04:34.969Z,9.93
2022-08-14T23:07:14.482Z,10.70
2022-08-14T23:10:31.603Z,10.45
2022-08-14T23:12:54.516Z,10.77
2022-08-14T23:15:22.882Z,10.95
2022-08-14T23:17:50.135Z,10.02
2022-08-14T23:20:19.925Z,9.38
2022-08-14T23:22:48.229Z,10.98
2022-08-14T23:25:19.992Z,10.38
2022-08-14T23:28:07.247Z,10.02
2022-08-14T23:30:55.355Z,10.70
2022-08-14T23:33:22.871Z,10.52
2022-08-14T23:35:59.158Z,10.05
2022-08-14T23:38:30.763Z,9.77
2022-08-14T23:41:00.618Z,10.30
2022-08-14T23:43:31.080Z,9.57
2022-08-14T23:45:59.118Z,9.98
2022-08-14T23:48:28.438Z,9.80
2022-08-14T23:50:56.794Z,10.07
2022-08-14T23:53:28.315Z,9.90
2022-08-14T23:56:15.711Z,10.88
2022-08-14T23:58:49.088Z,9.68
